createdAt,value
2023-04-06T00:00:58.345Z,43.37
2023-04-06T00:03:25.346Z,44.07
2023-04-06T00:05:52.526Z,43.93
2023-04-06T00:08:19.359Z,43.68
2023-04-06T00:10:46.603Z,43.26
2023-04-06T00:13:13.395Z,42.88
2023-04-06T00:15:40.441Z,43.15
2023-04-06T00:18:07.379Z,43.58
2023-04-06T00:20:34.192Z,42.83
2023-04-06T00:23:01.038Z,43.04
2023-04-06T00:25:27.905Z,42.46
2023-04-06T00:27:57.429Z,41.58
2023-04-06T00:30:24.172Z,41.93
2023-04-06T00:32:51.303Z,42.41
2023-04-06T00:35:18.358Z,41.55
2023-04-06T00:37:49.058Z,41.87
2023-04-06T00:40:16.600Z,41.42
2023-04-06T00:42:43.539Z,41.72
2023-04-06T00:45:11.288Z,42.15
2023-04-06T00:47:40.719Z,42.43
2023-04-06T00:50:08.025Z,43.06
2023-04-06T00:52:37.746Z,44.14
2023-04-06T00:55:07.449Z,44.38
2023-04-06T00:57:38.548Z,44.58
2023-04-06T01:00:06.159Z,44.37
2023-04-06T01:02:33.111Z,44.41
2023-04-06T01:05:00.027Z,44.79
2023-04-06T01:07:33.206Z,44.53
2023-04-06T01:10:06.493Z,44.51
2023-04-06T01:12:34.839Z,44.49
2023-04-06T01:15:10.014Z,44.12
2023-04-06T01:17:39.922Z,44.58
2023-04-06T01:20:12.014Z,43.92
2023-04-06T01:22:38.889Z,43.39
2023-04-06T01:25:06.501Z,44.25
2023-04-06T01:27:41.159Z,44.56
2023-04-06T01:30:46.529Z,44.99
2023-04-06T01:33:31.754Z,45.00
2023-04-06T01:36:06.889Z,44.98
2023-04-06T01:38:37.162Z,45.38
2023-04-06T01:41:04.395Z,44.61
2023-04-06T01:43:38.460Z,44.64
2023-04-06T01:46:08.130Z,44.79
2023-04-06T01:48:37.742Z,45.96
2023-04-06T01:51:16.332Z,46.17
2023-04-06T01:53:59.008Z,46.47
2023-04-06T01:56:36.350Z,46.43
2023-04-06T01:59:22.702Z,46.07
2023-04-06T02:01:52.608Z,46.15
2023-04-06T02:04:19.661Z,45.68
2023-04-06T02:06:49.290Z,46.32
2023-04-06T02:09:20.297Z,46.44
2023-04-06T02:11:47.092Z,46.13
2023-04-06T02:14:13.969Z,45.96
2023-04-06T02:16:45.813Z,45.80
2023-04-06T02:19:12.643Z,45.85
2023-04-06T02:21:39.608Z,45.52
2023-04-06T02:24:06.788Z,45.29
2023-04-06T02:26:33.546Z,44.79
2023-04-06T02:29:00.525Z,45.18
2023-04-06T02:31:27.377Z,44.83
2023-04-06T02:33:54.831Z,44.50
2023-04-06T02:36:21.632Z,44.48
2023-04-06T02:38:48.465Z,44.54
2023-04-06T02:41:15.560Z,44.71
2023-04-06T02:43:42.401Z,44.67
2023-04-06T02:46:23.702Z,45.51
2023-04-06T02:48:50.627Z,45.30
2023-04-06T02:51:17.369Z,44.73
2023-04-06T02:53:49.363Z,44.73
2023-04-06T02:56:16.566Z,44.84
2023-04-06T02:58:50.541Z,45.36
2023-04-06T03:01:18.089Z,45.26
2023-04-06T03:03:46.563Z,45.87
2023-04-06T03:06:20.667Z,45.56
2023-04-06T03:08:50.614Z,44.58
2023-04-06T03:11:17.473Z,44.67
2023-04-06T03:13:45.781Z,44.73
2023-04-06T03:16:12.629Z,45.83
2023-04-06T03:18:40.874Z,46.03
2023-04-06T03:21:12.654Z,46.38
2023-04-06T03:23:47.275Z,46.34
2023-04-06T03:26:14.022Z,46.91
2023-04-06T03:28:41.438Z,47.33
2023-04-06T03:31:08.257Z,48.30
2023-04-06T03:33:44.103Z,48.32
2023-04-06T03:36:17.023Z,47.45
2023-04-06T03:38:44.740Z,47.32
2023-04-06T03:41:13.693Z,48.57
2023-04-06T03:43:47.080Z,49.34
2023-04-06T03:46:14.054Z,49.22
2023-04-06T03:48:41.217Z,49.54
2023-04-06T03:51:07.988Z,49.69
2023-04-06T03:53:34.836Z,49.96
2023-04-06T03:56:04.097Z,50.02
2023-04-06T03:58:31.988Z,48.94
2023-04-06T04:00:58.783Z,48.87
2023-04-06T04:03:28.137Z,48.50
2023-04-06T04:05:56.446Z,48.78
2023-04-06T04:08:25.995Z,48.90
2023-04-06T04:10:52.845Z,49.26
2023-04-06T04:13:20.455Z,48.89
2023-04-06T04:15:52.731Z,49.19
2023-04-06T04:18:22.981Z,48.80
2023-04-06T04:20:52.423Z,48.15
2023-04-06T04:23:21.434Z,48.40
2023-04-06T04:25:48.217Z,48.62
2023-04-06T04:28:15.047Z,48.88
2023-04-06T04:30:42.602Z,48.49
2023-04-06T04:33:11.584Z,48.56
2023-04-06T04:35:38.566Z,49.44
2023-04-06T04:38:06.206Z,48.95
2023-04-06T04:40:34.548Z,49.62
2023-04-06T04:43:07.478Z,48.97
2023-04-06T04:45:35.378Z,49.37
2023-04-06T04:48:12.582Z,49.19
2023-04-06T04:50:50.669Z,49.09
2023-04-06T04:53:19.085Z,49.05
2023-04-06T04:55:46.478Z,48.67
2023-04-06T04:58:19.860Z,48.84
2023-04-06T05:00:55.447Z,49.30
2023-04-06T05:03:25.585Z,49.58
2023-04-06T05:05:59.473Z,49.07
2023-04-06T05:08:30.151Z,49.03
2023-04-06T05:10:57.980Z,49.19
2023-04-06T05:13:25.403Z,48.80
2023-04-06T05:15:54.340Z,49.21
2023-04-06T05:18:27.320Z,48.20
2023-04-06T05:20:54.753Z,48.70
2023-04-06T05:23:27.925Z,47.85
2023-04-06T05:25:55.125Z,47.57
2023-04-06T05:28:23.361Z,47.80
2023-04-06T05:30:50.710Z,47.52
2023-04-06T05:33:17.740Z,48.02
2023-04-06T05:36:20.330Z,47.43
2023-04-06T05:38:48.921Z,47.52
2023-04-06T05:41:27.832Z,46.76
2023-04-06T05:43:54.789Z,46.52
2023-04-06T05:46:24.026Z,46.27
2023-04-06T05:48:52.358Z,45.78
2023-04-06T05:51:22.836Z,44.65
2023-04-06T05:53:49.752Z,42.90
2023-04-06T05:56:16.681Z,42.60
2023-04-06T05:58:44.227Z,42.97
2023-04-06T06:01:14.234Z,42.11
2023-04-06T06:03:45.616Z,41.01
2023-04-06T06:06:12.454Z,40.29
2023-04-06T06:08:50.812Z,40.09
2023-04-06T06:11:18.967Z,38.53
2023-04-06T06:13:46.000Z,36.80
2023-04-06T06:16:12.820Z,36.06
2023-04-06T06:18:44.558Z,35.93
2023-04-06T06:21:13.309Z,35.94
2023-04-06T06:23:40.939Z,36.34
2023-04-06T06:26:07.886Z,36.75
2023-04-06T06:28:34.720Z,37.29
2023-04-06T06:31:02.138Z,37.03
2023-04-06T06:33:30.299Z,37.69
2023-04-06T06:35:58.554Z,37.76
2023-04-06T06:38:25.617Z,38.16
2023-04-06T06:40:53.472Z,38.40
2023-04-06T06:43:21.329Z,38.04
2023-04-06T06:46:03.670Z,37.81
2023-04-06T06:48:30.529Z,37.96
2023-04-06T06:50:57.671Z,37.73
2023-04-06T06:53:25.088Z,37.73
2023-04-06T06:55:51.930Z,37.70
2023-04-06T06:58:23.118Z,37.39
2023-04-06T07:00:50.006Z,37.10
2023-04-06T07:03:17.086Z,36.13
2023-04-06T07:05:54.398Z,36.04
2023-04-06T07:08:24.217Z,36.30
2023-04-06T07:10:53.557Z,35.71
2023-04-06T07:13:24.326Z,35.65
2023-04-06T07:15:54.238Z,34.91
2023-04-06T07:18:21.571Z,33.34
2023-04-06T07:20:48.709Z,33.27
2023-04-06T07:23:16.551Z,32.32
2023-04-06T07:25:43.413Z,31.65
2023-04-06T07:28:10.563Z,31.28
2023-04-06T07:30:38.833Z,29.89
2023-04-06T07:33:06.797Z,29.69
2023-04-06T07:35:37.476Z,30.60
2023-04-06T07:38:04.955Z,30.29
2023-04-06T07:40:33.745Z,30.19
2023-04-06T07:43:00.784Z,28.82
2023-04-06T07:45:27.682Z,27.97
2023-04-06T07:47:55.504Z,27.56
2023-04-06T07:50:23.932Z,26.78
2023-04-06T07:52:50.849Z,26.85
2023-04-06T07:55:17.664Z,26.70
2023-04-06T07:57:45.037Z,26.57
2023-04-06T08:00:12.790Z,26.36
2023-04-06T08:02:39.689Z,25.92
2023-04-06T08:05:06.889Z,25.87
2023-04-06T08:07:33.698Z,25.50
2023-04-06T08:10:00.784Z,27.67
2023-04-06T08:12:27.693Z,27.82
2023-04-06T08:14:54.458Z,26.13
2023-04-06T08:17:21.330Z,24.62
2023-04-06T08:19:48.126Z,23.69
2023-04-06T08:22:14.892Z,22.87
2023-04-06T08:24:41.808Z,22.58
2023-04-06T08:27:08.733Z,22.20
2023-04-06T08:29:35.562Z,22.82
2023-04-06T08:32:05.998Z,23.04
2023-04-06T08:34:36.426Z,23.82
2023-04-06T08:37:03.276Z,22.09
2023-04-06T08:39:31.763Z,22.75
2023-04-06T08:42:00.792Z,23.42
2023-04-06T08:44:28.035Z,22.41
2023-04-06T08:46:55.541Z,23.27
2023-04-06T08:49:23.385Z,24.28
2023-04-06T08:51:51.087Z,23.38
2023-04-06T08:54:17.915Z,23.70
2023-04-06T08:56:44.794Z,23.62
2023-04-06T08:59:12.841Z,23.11
2023-04-06T09:01:45.264Z,22.95
2023-04-06T09:04:13.452Z,21.97
2023-04-06T09:06:41.795Z,21.20
2023-04-06T09:09:09.558Z,20.43
2023-04-06T09:11:47.263Z,21.01
2023-04-06T09:14:14.417Z,21.04
2023-04-06T09:16:42.827Z,20.66
2023-04-06T09:19:10.920Z,21.02
2023-04-06T09:21:39.244Z,20.84
2023-04-06T09:24:08.129Z,20.89
2023-04-06T09:26:47.034Z,21.58
2023-04-06T09:29:28.045Z,21.42
2023-04-06T09:32:07.245Z,21.89
2023-04-06T09:34:35.338Z,22.00
2023-04-06T09:37:12.618Z,20.39
2023-04-06T09:39:39.441Z,20.36
2023-04-06T09:42:06.324Z,20.13
2023-04-06T09:44:33.236Z,20.65
2023-04-06T09:47:01.252Z,20.54
2023-04-06T09:49:31.286Z,21.22
2023-04-06T09:52:00.572Z,19.81
2023-04-06T09:54:30.581Z,20.45
2023-04-06T09:57:03.628Z,20.49
2023-04-06T09:59:36.754Z,19.55
2023-04-06T10:02:06.597Z,20.09
2023-04-06T10:04:49.130Z,19.54
2023-04-06T10:07:16.636Z,20.08
2023-04-06T10:09:47.531Z,21.53
2023-04-06T10:12:15.394Z,21.08
2023-04-06T10:14:43.931Z,21.77
2023-04-06T10:17:12.695Z,20.94
2023-04-06T10:20:04.076Z,21.08
2023-04-06T10:22:42.293Z,20.37
2023-04-06T10:25:09.880Z,20.50
2023-04-06T10:27:36.889Z,21.80
2023-04-06T10:30:07.884Z,21.54
2023-04-06T10:32:39.088Z,21.83
2023-04-06T10:35:13.752Z,20.69
2023-04-06T10:38:05.746Z,21.80
2023-04-06T10:40:32.802Z,23.83
2023-04-06T10:43:10.998Z,22.87
2023-04-06T10:45:40.346Z,23.11
2023-04-06T10:48:17.647Z,23.31
2023-04-06T10:50:54.623Z,22.97
2023-04-06T10:53:26.446Z,23.13
2023-04-06T10:55:57.564Z,24.91
2023-04-06T10:58:28.401Z,25.56
2023-04-06T11:00:56.647Z,25.08
2023-04-06T11:03:24.129Z,24.99
2023-04-06T11:05:52.306Z,24.51
2023-04-06T11:08:31.581Z,24.89
2023-04-06T11:11:16.876Z,24.93
2023-04-06T11:13:44.889Z,24.30
2023-04-06T11:16:22.614Z,24.15
2023-04-06T11:19:02.501Z,25.13
2023-04-06T11:21:49.312Z,25.45
2023-04-06T11:24:17.042Z,25.48
2023-04-06T11:26:44.787Z,26.13
2023-04-06T11:29:20.170Z,26.63
2023-04-06T11:31:50.116Z,27.29
2023-04-06T11:34:19.073Z,26.80
2023-04-06T11:36:47.986Z,27.53
2023-04-06T11:39:20.745Z,27.82
2023-04-06T11:41:55.529Z,28.27
2023-04-06T11:44:41.474Z,27.65
2023-04-06T11:47:10.766Z,27.44
2023-04-06T11:49:39.413Z,27.63
2023-04-06T11:52:20.146Z,28.08
2023-04-06T11:54:48.784Z,28.85
2023-04-06T11:57:16.394Z,28.39
2023-04-06T11:59:43.429Z,28.47
2023-04-06T12:02:10.573Z,28.58
2023-04-06T12:04:37.864Z,30.06
2023-04-06T12:07:05.402Z,29.15
2023-04-06T12:09:32.627Z,30.12
2023-04-06T12:11:59.472Z,29.98
2023-04-06T12:14:26.318Z,30.22
2023-04-06T12:16:53.154Z,30.46
2023-04-06T12:19:20.050Z,30.69
2023-04-06T12:21:46.884Z,31.40
2023-04-06T12:24:13.700Z,30.66
2023-04-06T12:26:42.356Z,31.27
2023-04-06T12:29:09.190Z,31.32
2023-04-06T12:31:37.403Z,31.55
2023-04-06T12:34:04.432Z,31.55
2023-04-06T12:36:32.232Z,31.89
2023-04-06T12:38:59.531Z,30.93
2023-04-06T12:41:26.633Z,31.95
2023-04-06T12:43:53.459Z,31.74
2023-04-06T12:46:21.033Z,31.13
2023-04-06T12:48:47.933Z,31.56
2023-04-06T12:51:14.738Z,31.87
2023-04-06T12:53:41.723Z,30.96
2023-04-06T12:56:25.003Z,31.10
2023-04-06T12:58:52.846Z,30.73
2023-04-06T13:01:20.058Z,30.83
2023-04-06T13:03:46.870Z,31.14
2023-04-06T13:06:14.178Z,31.18
2023-04-06T13:08:41.583Z,30.75
2023-04-06T13:11:11.430Z,31.36
2023-04-06T13:13:38.574Z,32.13
2023-04-06T13:16:08.964Z,31.70
2023-04-06T13:18:37.779Z,32.48
2023-04-06T13:21:05.574Z,33.03
2023-04-06T13:23:32.498Z,34.88
2023-04-06T13:26:06.326Z,35.16
2023-04-06T13:28:35.547Z,34.99
2023-04-06T13:31:03.324Z,35.55
2023-04-06T13:33:31.683Z,36.05
2023-04-06T13:35:59.438Z,37.21
2023-04-06T13:38:26.288Z,36.74
2023-04-06T13:40:53.171Z,39.14
2023-04-06T13:43:22.650Z,37.62
2023-04-06T13:45:51.098Z,36.79
2023-04-06T13:48:18.377Z,36.35
2023-04-06T13:50:45.285Z,36.79
2023-04-06T13:53:12.176Z,36.57
2023-04-06T13:55:39.038Z,37.99
2023-04-06T13:58:05.853Z,42.33
2023-04-06T14:00:32.690Z,44.80
2023-04-06T14:02:59.487Z,41.89
2023-04-06T14:05:28.657Z,45.67
2023-04-06T14:07:55.590Z,46.92
2023-04-06T14:10:24.705Z,47.72
2023-04-06T14:12:51.448Z,49.26
2023-04-06T14:15:18.531Z,49.39
2023-04-06T14:17:45.626Z,47.43
2023-04-06T14:20:15.152Z,46.88
2023-04-06T14:22:43.809Z,47.80
2023-04-06T14:25:14.553Z,48.47
2023-04-06T14:27:41.359Z,48.02
2023-04-06T14:30:09.285Z,49.58
2023-04-06T14:32:37.562Z,48.40
2023-04-06T14:35:08.000Z,49.29
2023-04-06T14:37:35.338Z,48.73
2023-04-06T14:40:03.419Z,50.16
2023-04-06T14:42:30.648Z,49.38
2023-04-06T14:44:57.363Z,50.46
2023-04-06T14:47:24.463Z,49.80
2023-04-06T14:49:52.559Z,49.31
2023-04-06T14:52:19.376Z,50.80
2023-04-06T14:54:46.217Z,50.14
2023-04-06T14:57:13.017Z,52.21
2023-04-06T14:59:40.334Z,50.92
2023-04-06T15:02:07.865Z,50.85
2023-04-06T15:04:38.277Z,52.38
2023-04-06T15:07:05.058Z,52.88
2023-04-06T15:09:31.876Z,53.21
2023-04-06T15:11:58.641Z,55.02
2023-04-06T15:14:25.951Z,53.89
2023-04-06T15:16:52.785Z,55.79
2023-04-06T15:19:19.832Z,55.30
2023-04-06T15:21:46.582Z,55.64
2023-04-06T15:24:13.507Z,57.44
2023-04-06T15:26:40.484Z,58.16
2023-04-06T15:29:07.426Z,57.75
2023-04-06T15:31:38.337Z,57.16
2023-04-06T15:34:08.857Z,58.00
2023-04-06T15:36:36.259Z,57.22
2023-04-06T15:39:04.263Z,58.14
2023-04-06T15:41:31.645Z,58.86
2023-04-06T15:43:58.639Z,57.87
2023-04-06T15:46:27.884Z,58.08
2023-04-06T15:48:55.977Z,60.79
2023-04-06T15:51:24.124Z,59.41
2023-04-06T15:53:51.071Z,59.07
2023-04-06T15:56:18.172Z,59.42
2023-04-06T15:58:45.596Z,58.76
2023-04-06T16:01:17.057Z,60.30
2023-04-06T16:03:44.535Z,60.28
2023-04-06T16:06:12.286Z,60.63
2023-04-06T16:08:40.304Z,59.84
2023-04-06T16:11:07.722Z,60.07
2023-04-06T16:13:34.829Z,61.78
2023-04-06T16:16:01.665Z,60.68
2023-04-06T16:18:28.517Z,61.43
2023-04-06T16:20:55.427Z,62.54
2023-04-06T16:23:22.269Z,61.98
2023-04-06T16:25:50.595Z,62.50
2023-04-06T16:28:17.703Z,62.23
2023-04-06T16:30:46.703Z,62.48
2023-04-06T16:33:14.048Z,63.18
2023-04-06T16:35:47.939Z,63.68
2023-04-06T16:38:16.158Z,63.34
2023-04-06T16:40:42.945Z,61.99
2023-04-06T16:43:12.519Z,64.31
2023-04-06T16:45:39.343Z,65.07
2023-04-06T16:48:06.666Z,65.77
2023-04-06T16:50:33.582Z,65.34
2023-04-06T16:53:00.608Z,67.27
2023-04-06T16:55:27.344Z,67.52
2023-04-06T16:57:55.966Z,65.70
2023-04-06T17:00:23.198Z,66.97
2023-04-06T17:02:50.150Z,66.87
2023-04-06T17:05:21.757Z,66.58
2023-04-06T17:07:48.589Z,65.09
2023-04-06T17:10:15.935Z,65.17
2023-04-06T17:12:43.323Z,66.58
2023-04-06T17:15:10.628Z,65.06
2023-04-06T17:17:37.472Z,66.42
2023-04-06T17:20:05.062Z,67.13
2023-04-06T17:22:31.788Z,66.10
2023-04-06T17:24:58.456Z,65.78
2023-04-06T17:27:26.845Z,67.79
2023-04-06T17:29:53.597Z,68.04
2023-04-06T17:32:21.859Z,68.88
2023-04-06T17:34:48.796Z,69.17
2023-04-06T17:37:15.534Z,68.11
2023-04-06T17:39:42.380Z,68.77
2023-04-06T17:42:09.152Z,69.89
2023-04-06T17:44:36.269Z,70.21
2023-04-06T17:47:03.103Z,70.10
2023-04-06T17:49:31.370Z,69.86
2023-04-06T17:51:58.050Z,69.18
2023-04-06T17:54:24.712Z,70.21
2023-04-06T17:56:53.359Z,69.38
2023-04-06T17:59:20.346Z,68.58
2023-04-06T18:01:47.312Z,68.81
2023-04-06T18:04:14.181Z,68.90
2023-04-06T18:06:41.007Z,68.10
2023-04-06T18:09:08.984Z,67.94
2023-04-06T18:11:35.875Z,68.99
2023-04-06T18:14:09.329Z,69.54
2023-04-06T18:16:36.032Z,68.69
2023-04-06T18:19:04.487Z,68.78
2023-04-06T18:21:32.106Z,68.75
2023-04-06T18:24:04.133Z,68.55
2023-04-06T18:26:33.423Z,68.69
2023-04-06T18:29:00.515Z,69.35
2023-04-06T18:31:27.684Z,68.76
2023-04-06T18:33:54.951Z,68.50
2023-04-06T18:36:21.733Z,68.56
2023-04-06T18:38:49.064Z,67.84
2023-04-06T18:41:17.717Z,68.94
2023-04-06T18:43:44.655Z,68.43
2023-04-06T18:46:13.410Z,68.61
2023-04-06T18:48:41.718Z,67.89
2023-04-06T18:51:08.647Z,68.06
2023-04-06T18:53:36.821Z,68.29
2023-04-06T18:56:17.488Z,67.56
2023-04-06T18:58:45.747Z,67.98
2023-04-06T19:01:22.662Z,68.61
2023-04-06T19:03:49.605Z,68.75
2023-04-06T19:06:16.457Z,68.73
2023-04-06T19:08:43.201Z,68.19
2023-04-06T19:11:10.002Z,68.01
2023-04-06T19:13:38.227Z,68.67
2023-04-06T19:16:11.208Z,68.66
2023-04-06T19:18:45.224Z,67.98
2023-04-06T19:21:19.514Z,68.64
2023-04-06T19:23:47.819Z,68.19
2023-04-06T19:26:16.419Z,68.48
2023-04-06T19:28:43.775Z,68.39
2023-04-06T19:31:12.398Z,68.01
2023-04-06T19:33:39.235Z,68.38
2023-04-06T19:36:07.199Z,67.38
2023-04-06T19:38:34.498Z,67.37
2023-04-06T19:41:01.586Z,67.48
2023-04-06T19:43:28.591Z,67.81
2023-04-06T19:45:55.374Z,68.13
2023-04-06T19:48:22.253Z,67.56
2023-04-06T19:50:52.255Z,68.01
2023-04-06T19:53:19.086Z,67.52
2023-04-06T19:55:46.657Z,67.10
2023-04-06T19:58:14.350Z,67.05
2023-04-06T20:00:41.486Z,67.39
2023-04-06T20:03:08.467Z,67.28
2023-04-06T20:05:35.733Z,67.39
2023-04-06T20:08:02.545Z,67.33
2023-04-06T20:10:29.227Z,67.96
2023-04-06T20:12:56.082Z,67.73
2023-04-06T20:15:23.162Z,67.70
2023-04-06T20:17:50.059Z,67.21
2023-04-06T20:20:18.950Z,67.32
2023-04-06T20:22:49.782Z,67.11
2023-04-06T20:25:17.364Z,67.33
2023-04-06T20:27:45.319Z,67.27
2023-04-06T20:30:14.795Z,66.86
2023-04-06T20:32:41.956Z,66.47
2023-04-06T20:35:09.152Z,66.63
2023-04-06T20:37:39.169Z,66.98
2023-04-06T20:40:06.658Z,67.27
2023-04-06T20:42:34.325Z,67.14
2023-04-06T20:45:02.564Z,67.80
2023-04-06T20:47:29.445Z,67.24
2023-04-06T20:49:56.202Z,68.74
2023-04-06T20:52:22.994Z,69.39
2023-04-06T20:54:50.810Z,69.13
2023-04-06T20:57:17.618Z,68.26
2023-04-06T20:59:45.291Z,68.94
2023-04-06T21:02:12.564Z,68.45
2023-04-06T21:04:39.611Z,68.38
2023-04-06T21:07:07.306Z,68.77
2023-04-06T21:09:35.952Z,68.93
2023-04-06T21:12:03.967Z,68.62
2023-04-06T21:14:31.038Z,67.94
2023-04-06T21:16:59.564Z,68.32
2023-04-06T21:19:29.804Z,68.45
2023-04-06T21:21:56.708Z,66.81
2023-04-06T21:24:23.516Z,67.76
2023-04-06T21:26:50.398Z,69.38
2023-04-06T21:29:17.464Z,71.06
2023-04-06T21:31:44.235Z,70.54
2023-04-06T21:34:11.924Z,70.34
2023-04-06T21:36:39.842Z,69.88
2023-04-06T21:39:07.539Z,69.36
2023-04-06T21:41:34.873Z,69.55
2023-04-06T21:44:01.700Z,70.18
2023-04-06T21:46:28.720Z,70.85
2023-04-06T21:48:55.901Z,71.63
2023-04-06T21:51:23.697Z,72.16
2023-04-06T21:53:52.121Z,72.28
2023-04-06T21:56:23.383Z,73.60
2023-04-06T21:58:50.888Z,73.05
2023-04-06T22:01:18.083Z,73.06
2023-04-06T22:03:46.123Z,73.33
2023-04-06T22:06:13.415Z,73.08
2023-04-06T22:08:40.350Z,73.41
2023-04-06T22:11:09.082Z,73.11
2023-04-06T22:13:36.195Z,73.20
2023-04-06T22:16:03.379Z,73.36
2023-04-06T22:18:31.240Z,73.05
2023-04-06T22:20:58.175Z,72.76
2023-04-06T22:23:25.480Z,71.76
2023-04-06T22:25:52.906Z,72.36
2023-04-06T22:28:19.657Z,72.37
2023-04-06T22:30:46.420Z,72.47
2023-04-06T22:33:13.257Z,72.39
2023-04-06T22:35:40.641Z,71.93
2023-04-06T22:38:08.660Z,72.07
2023-04-06T22:40:35.464Z,72.10
2023-04-06T22:43:02.187Z,72.49
2023-04-06T22:45:29.001Z,72.01
2023-04-06T22:47:55.731Z,72.00
2023-04-06T22:50:22.612Z,72.36
2023-04-06T22:52:49.506Z,71.93
2023-04-06T22:55:16.329Z,72.45
2023-04-06T22:57:43.044Z,71.90
2023-04-06T23:00:10.427Z,71.93
2023-04-06T23:02:37.341Z,71.48
2023-04-06T23:05:04.345Z,71.82
2023-04-06T23:07:32.624Z,71.25
2023-04-06T23:09:59.566Z,71.19
2023-04-06T23:12:26.509Z,71.32
2023-04-06T23:14:53.682Z,71.60
2023-04-06T23:17:20.561Z,72.43
2023-04-06T23:19:47.454Z,72.19
2023-04-06T23:22:14.223Z,72.26
2023-04-06T23:24:41.394Z,71.91
2023-04-06T23:27:08.137Z,71.38
2023-04-06T23:29:34.863Z,71.67
2023-04-06T23:32:01.670Z,71.18
2023-04-06T23:34:28.456Z,70.91
2023-04-06T23:36:55.417Z,71.07
2023-04-06T23:39:22.185Z,71.04
2023-04-06T23:41:48.960Z,71.01
2023-04-06T23:44:15.722Z,71.05
2023-04-06T23:46:42.499Z,70.61
2023-04-06T23:49:09.299Z,70.87
2023-04-06T23:51:36.209Z,70.25
2023-04-06T23:54:03.100Z,69.94
2023-04-06T23:56:31.776Z,70.44
2023-04-06T23:58:58.600Z,71.41
